sensor_id;sensor_type;location;lat;lon;timestamp;pressure;altitude;pressure_sealevel;temperature;humidity
67818;BME280;54614;47.576;7.524;2023-04-25T00:01:47;98016.50;;;26.04;34.78
67818;BME280;54614;47.576;7.524;2023-04-25T00:04:13;98015.19;;;26.06;34.51
67818;BME280;54614;47.576;7.524;2023-04-25T00:06:39;98011.09;;;26.04;34.73
67818;BME280;54614;47.576;7.524;2023-04-25T00:09:06;98013.81;;;26.04;34.78
67818;BME280;54614;47.576;7.524;2023-04-25T00:11:36;98017.78;;;26.01;34.91
67818;BME280;54614;47.576;7.524;2023-04-25T00:14:04;98011.94;;;26.04;34.62
67818;BME280;54614;47.576;7.524;2023-04-25T00:16:30;98004.91;;;26.03;34.53
67818;BME280;54614;47.576;7.524;2023-04-25T00:18:59;98005.13;;;26.01;34.69
67818;BME280;54614;47.576;7.524;2023-04-25T00:21:25;98010.72;;;26.00;34.72
67818;BME280;54614;47.576;7.524;2023-04-25T00:23:53;98003.94;;;25.97;34.56
67818;BME280;54614;47.576;7.524;2023-04-25T00:26:19;98007.44;;;25.98;34.60
67818;BME280;54614;47.576;7.524;2023-04-25T00:28:47;98001.00;;;25.99;34.43
67818;BME280;54614;47.576;7.524;2023-04-25T00:31:13;97997.47;;;25.98;34.58
67818;BME280;54614;47.576;7.524;2023-04-25T00:33:39;97992.91;;;25.99;34.51
67818;BME280;54614;47.576;7.524;2023-04-25T00:36:06;97989.16;;;26.00;34.55
67818;BME280;54614;47.576;7.524;2023-04-25T00:38:32;97997.72;;;25.97;34.36
67818;BME280;54614;47.576;7.524;2023-04-25T00:40:58;97997.13;;;25.95;34.70
67818;BME280;54614;47.576;7.524;2023-04-25T00:43:27;97996.91;;;25.96;34.63
67818;BME280;54614;47.576;7.524;2023-04-25T00:45:53;98004.16;;;25.96;34.55
67818;BME280;54614;47.576;7.524;2023-04-25T00:48:22;98000.88;;;25.94;34.31
67818;BME280;54614;47.576;7.524;2023-04-25T00:50:58;98000.28;;;25.92;34.64
67818;BME280;54614;47.576;7.524;2023-04-25T00:53:27;98001.34;;;25.91;34.68
67818;BME280;54614;47.576;7.524;2023-04-25T00:55:54;97991.16;;;25.93;34.44
67818;BME280;54614;47.576;7.524;2023-04-25T00:58:21;97991.97;;;25.93;34.43
67818;BME280;54614;47.576;7.524;2023-04-25T01:00:50;97992.22;;;25.92;34.29
67818;BME280;54614;47.576;7.524;2023-04-25T01:03:17;97992.22;;;25.92;34.52
67818;BME280;54614;47.576;7.524;2023-04-25T01:05:46;97986.47;;;25.88;34.54
67818;BME280;54614;47.576;7.524;2023-04-25T01:08:13;97990.56;;;25.91;34.19
67818;BME280;54614;47.576;7.524;2023-04-25T01:10:39;97994.09;;;25.91;34.51
67818;BME280;54614;47.576;7.524;2023-04-25T01:13:07;97982.50;;;25.91;34.31
67818;BME280;54614;47.576;7.524;2023-04-25T01:15:33;97989.16;;;25.88;34.41
67818;BME280;54614;47.576;7.524;2023-04-25T01:18:01;97982.38;;;25.86;34.46
67818;BME280;54614;47.576;7.524;2023-04-25T01:20:28;97982.97;;;25.88;34.70
67818;BME280;54614;47.576;7.524;2023-04-25T01:22:55;97975.94;;;25.87;34.40
67818;BME280;54614;47.576;7.524;2023-04-25T01:25:23;97973.47;;;25.85;34.48
67818;BME280;54614;47.576;7.524;2023-04-25T01:27:50;97969.97;;;25.85;34.51
67818;BME280;54614;47.576;7.524;2023-04-25T01:30:16;97962.47;;;25.87;34.34
67818;BME280;54614;47.576;7.524;2023-04-25T01:32:43;97960.81;;;25.86;34.34
67818;BME280;54614;47.576;7.524;2023-04-25T01:35:11;97966.22;;;25.86;34.39
67818;BME280;54614;47.576;7.524;2023-04-25T01:37:44;97954.25;;;25.82;34.29
67818;BME280;54614;47.576;7.524;2023-04-25T01:40:12;97956.13;;;25.81;34.43
67818;BME280;54614;47.576;7.524;2023-04-25T01:42:42;97946.75;;;25.84;34.27
67818;BME280;54614;47.576;7.524;2023-04-25T01:45:10;97944.88;;;25.84;34.54
67818;BME280;54614;47.576;7.524;2023-04-25T01:47:38;97939.75;;;25.83;34.66
67818;BME280;54614;47.576;7.524;2023-04-25T01:50:07;97943.00;;;25.85;34.24
67818;BME280;54614;47.576;7.524;2023-04-25T01:52:33;97945.13;;;25.83;34.27
67818;BME280;54614;47.576;7.524;2023-04-25T01:55:02;97945.72;;;25.85;34.27
67818;BME280;54614;47.576;7.524;2023-04-25T01:57:28;97943.47;;;25.82;34.63
67818;BME280;54614;47.576;7.524;2023-04-25T02:00:00;97942.44;;;25.83;34.21
67818;BME280;54614;47.576;7.524;2023-04-25T02:02:27;97939.75;;;25.83;34.50
67818;BME280;54614;47.576;7.524;2023-04-25T02:04:53;97938.31;;;25.80;34.45
67818;BME280;54614;47.576;7.524;2023-04-25T02:07:20;97943.25;;;25.83;34.32
67818;BME280;54614;47.576;7.524;2023-04-25T02:09:46;97935.88;;;25.79;34.47
67818;BME280;54614;47.576;7.524;2023-04-25T02:12:12;97937.75;;;25.78;34.50
67818;BME280;54614;47.576;7.524;2023-04-25T02:14:38;97940.69;;;25.77;34.44
67818;BME280;54614;47.576;7.524;2023-04-25T02:17:03;97939.38;;;25.79;34.25
67818;BME280;54614;47.576;7.524;2023-04-25T02:19:29;97926.16;;;25.78;34.24
67818;BME280;54614;47.576;7.524;2023-04-25T02:21:55;97932.13;;;25.80;34.23
67818;BME280;54614;47.576;7.524;2023-04-25T02:24:22;97925.56;;;25.76;34.42
67818;BME280;54614;47.576;7.524;2023-04-25T02:26:48;97928.25;;;25.76;34.73
67818;BME280;54614;47.576;7.524;2023-04-25T02:29:15;97929.56;;;25.73;34.38
67818;BME280;54614;47.576;7.524;2023-04-25T02:31:42;97927.44;;;25.75;34.45
67818;BME280;54614;47.576;7.524;2023-04-25T02:34:08;97921.81;;;25.77;34.55
67818;BME280;54614;47.576;7.524;2023-04-25T02:36:34;97917.97;;;25.73;34.58
67818;BME280;54614;47.576;7.524;2023-04-25T02:39:01;97916.09;;;25.73;34.40
67818;BME280;54614;47.576;7.524;2023-04-25T02:41:28;97924.41;;;25.72;34.20
67818;BME280;54614;47.576;7.524;2023-04-25T02:43:54;97919.00;;;25.72;34.32
67818;BME280;54614;47.576;7.524;2023-04-25T02:46:20;97916.31;;;25.72;34.31
67818;BME280;54614;47.576;7.524;2023-04-25T02:48:46;97914.22;;;25.74;34.39
67818;BME280;54614;47.576;7.524;2023-04-25T02:51:12;97906.84;;;25.69;34.38
67818;BME280;54614;47.576;7.524;2023-04-25T02:53:38;97905.78;;;25.70;34.38
67818;BME280;54614;47.576;7.524;2023-04-25T02:56:04;97909.28;;;25.70;34.67
67818;BME280;54614;47.576;7.524;2023-04-25T02:58:30;97902.50;;;25.68;34.48
67818;BME280;54614;47.576;7.524;2023-04-25T03:00:56;97893.13;;;25.70;34.42
67818;BME280;54614;47.576;7.524;2023-04-25T03:03:22;97893.94;;;25.71;34.46
67818;BME280;54614;47.576;7.524;2023-04-25T03:05:50;97885.75;;;25.66;34.44
67818;BME280;54614;47.576;7.524;2023-04-25T03:08:17;97877.19;;;25.69;34.22
67818;BME280;54614;47.576;7.524;2023-04-25T03:10:44;97877.19;;;25.69;34.53
67818;BME280;54614;47.576;7.524;2023-04-25T03:13:11;97873.69;;;25.68;34.58
67818;BME280;54614;47.576;7.524;2023-04-25T03:15:37;97874.75;;;25.67;34.47
67818;BME280;54614;47.576;7.524;2023-04-25T03:18:03;97872.06;;;25.67;34.33
67818;BME280;54614;47.576;7.524;2023-04-25T03:20:29;97865.47;;;25.63;34.49
67818;BME280;54614;47.576;7.524;2023-04-25T03:22:56;97869.59;;;25.66;34.42
67818;BME280;54614;47.576;7.524;2023-04-25T03:25:21;97863.38;;;25.65;34.54
67818;BME280;54614;47.576;7.524;2023-04-25T03:27:47;97861.28;;;25.67;34.63
67818;BME280;54614;47.576;7.524;2023-04-25T03:30:13;97864.22;;;25.66;34.17
67818;BME280;54614;47.576;7.524;2023-04-25T03:32:39;97858.09;;;25.59;34.68
67818;BME280;54614;47.576;7.524;2023-04-25T03:35:05;97864.66;;;25.63;34.37
67818;BME280;54614;47.576;7.524;2023-04-25T03:37:31;97856.47;;;25.58;34.79
67818;BME280;54614;47.576;7.524;2023-04-25T03:39:57;97858.09;;;25.59;34.66
67818;BME280;54614;47.576;7.524;2023-04-25T03:42:22;97859.25;;;25.63;34.56
67818;BME280;54614;47.576;7.524;2023-04-25T03:44:49;97860.31;;;25.62;34.58
67818;BME280;54614;47.576;7.524;2023-04-25T03:47:15;97860.56;;;25.60;34.50
67818;BME280;54614;47.576;7.524;2023-04-25T03:49:41;97865.47;;;25.63;34.65
67818;BME280;54614;47.576;7.524;2023-04-25T03:52:07;97867.59;;;25.61;34.73
67818;BME280;54614;47.576;7.524;2023-04-25T03:54:33;97865.72;;;25.62;34.61
67818;BME280;54614;47.576;7.524;2023-04-25T03:56:59;97862.19;;;25.61;34.17
67818;BME280;54614;47.576;7.524;2023-04-25T03:59:25;97862.66;;;25.58;34.50
67818;BME280;54614;47.576;7.524;2023-04-25T04:01:52;97857.97;;;25.54;34.50
67818;BME280;54614;47.576;7.524;2023-04-25T04:04:18;97857.28;;;25.58;34.67
67818;BME280;54614;47.576;7.524;2023-04-25T04:06:44;97862.78;;;25.63;34.43
67818;BME280;54614;47.576;7.524;2023-04-25T04:09:10;97859.97;;;25.58;34.81
67818;BME280;54614;47.576;7.524;2023-04-25T04:11:38;97862.44;;;25.60;34.48
67818;BME280;54614;47.576;7.524;2023-04-25T04:14:06;97861.13;;;25.62;34.36
67818;BME280;54614;47.576;7.524;2023-04-25T04:16:32;97864.06;;;25.61;34.22
67818;BME280;54614;47.576;7.524;2023-04-25T04:18:58;97846.75;;;25.57;34.60
67818;BME280;54614;47.576;7.524;2023-04-25T04:21:24;97854.13;;;25.61;34.38
67818;BME280;54614;47.576;7.524;2023-04-25T04:23:50;97849.44;;;25.57;34.45
67818;BME280;54614;47.576;7.524;2023-04-25T04:26:16;97846.50;;;25.58;34.20
67818;BME280;54614;47.576;7.524;2023-04-25T04:28:43;97844.16;;;25.62;34.34
67818;BME280;54614;47.576;7.524;2023-04-25T04:31:10;97838.44;;;25.58;34.50
67818;BME280;54614;47.576;7.524;2023-04-25T04:33:36;97844.63;;;25.59;34.13
67818;BME280;54614;47.576;7.524;2023-04-25T04:36:03;97844.03;;;25.57;34.33
67818;BME280;54614;47.576;7.524;2023-04-25T04:38:30;97856.94;;;25.55;34.19
67818;BME280;54614;47.576;7.524;2023-04-25T04:40:56;97953.41;;;25.58;34.42
67818;BME280;54614;47.576;7.524;2023-04-25T04:43:22;97948.25;;;25.56;34.23
67818;BME280;54614;47.576;7.524;2023-04-25T04:45:49;97952.59;;;25.57;34.01
67818;BME280;54614;47.576;7.524;2023-04-25T04:48:16;97960.44;;;25.59;34.06
67818;BME280;54614;47.576;7.524;2023-04-25T04:50:45;97964.41;;;25.56;34.02
67818;BME280;54614;47.576;7.524;2023-04-25T04:53:11;97963.81;;;25.54;34.04
67818;BME280;54614;47.576;7.524;2023-04-25T04:55:37;97977.28;;;25.54;34.05
67818;BME280;54614;47.576;7.524;2023-04-25T04:58:03;97966.75;;;25.53;34.06
67818;BME280;54614;47.576;7.524;2023-04-25T05:00:29;97961.00;;;25.49;34.24
67818;BME280;54614;47.576;7.524;2023-04-25T05:02:56;97952.94;;;25.49;34.39
67818;BME280;54614;47.576;7.524;2023-04-25T05:05:22;97942.75;;;25.51;34.08
67818;BME280;54614;47.576;7.524;2023-04-25T05:07:48;97934.09;;;25.49;34.12
67818;BME280;54614;47.576;7.524;2023-04-25T05:10:13;97921.66;;;25.48;34.05
67818;BME280;54614;47.576;7.524;2023-04-25T05:12:39;97922.72;;;25.47;34.24
67818;BME280;54614;47.576;7.524;2023-04-25T05:15:06;97922.25;;;25.50;34.44
67818;BME280;54614;47.576;7.524;2023-04-25T05:17:32;97918.16;;;25.48;34.10
67818;BME280;54614;47.576;7.524;2023-04-25T05:19:58;97907.97;;;25.50;34.22
67818;BME280;54614;47.576;7.524;2023-04-25T05:22:24;97909.84;;;25.49;34.26
67818;BME280;54614;47.576;7.524;2023-04-25T05:24:53;97922.50;;;25.49;34.04
67818;BME280;54614;47.576;7.524;2023-04-25T05:27:20;97924.13;;;25.50;34.21
67818;BME280;54614;47.576;7.524;2023-04-25T05:29:46;97925.19;;;25.49;34.37
67818;BME280;54614;47.576;7.524;2023-04-25T05:32:11;97926.00;;;25.49;34.48
67818;BME280;54614;47.576;7.524;2023-04-25T05:34:37;97930.56;;;25.49;34.22
67818;BME280;54614;47.576;7.524;2023-04-25T05:37:03;97930.81;;;25.47;34.53
67818;BME280;54614;47.576;7.524;2023-04-25T05:39:29;97933.50;;;25.47;34.45
67818;BME280;54614;47.576;7.524;2023-04-25T05:41:55;97928.94;;;25.48;34.37
67818;BME280;54614;47.576;7.524;2023-04-25T05:44:21;97920.03;;;25.47;34.51
67818;BME280;54614;47.576;7.524;2023-04-25T05:46:47;97933.97;;;25.44;34.82
67818;BME280;54614;47.576;7.524;2023-04-25T05:49:13;97925.66;;;25.46;34.63
67818;BME280;54614;47.576;7.524;2023-04-25T05:51:38;97920.84;;;25.48;34.39
67818;BME280;54614;47.576;7.524;2023-04-25T05:54:04;97917.94;;;25.49;34.53
67818;BME280;54614;47.576;7.524;2023-04-25T05:56:30;97920.25;;;25.46;34.62
67818;BME280;54614;47.576;7.524;2023-04-25T05:58:56;97915.47;;;25.48;34.63
67818;BME280;54614;47.576;7.524;2023-04-25T06:01:23;97907.63;;;25.46;34.58
67818;BME280;54614;47.576;7.524;2023-04-25T06:03:49;97913.47;;;25.43;34.69
67818;BME280;54614;47.576;7.524;2023-04-25T06:06:17;97922.13;;;25.45;34.58
67818;BME280;54614;47.576;7.524;2023-04-25T06:08:42;97935.38;;;25.47;34.73
67818;BME280;54614;47.576;7.524;2023-04-25T06:11:08;97940.28;;;25.50;34.70
67818;BME280;54614;47.576;7.524;2023-04-25T06:13:34;97944.25;;;25.47;34.77
67818;BME280;54614;47.576;7.524;2023-04-25T06:16:00;97948.00;;;25.46;34.57
67818;BME280;54614;47.576;7.524;2023-04-25T06:18:26;97949.66;;;25.47;34.66
67818;BME280;54614;47.576;7.524;2023-04-25T06:20:51;97959.38;;;25.48;34.66
67818;BME280;54614;47.576;7.524;2023-04-25T06:23:17;97954.56;;;25.50;34.58
67818;BME280;54614;47.576;7.524;2023-04-25T06:25:43;97957.50;;;25.49;34.66
67818;BME280;54614;47.576;7.524;2023-04-25T06:28:09;97958.53;;;25.48;34.61
67818;BME280;54614;47.576;7.524;2023-04-25T06:30:35;97955.84;;;25.48;34.52
67818;BME280;54614;47.576;7.524;2023-04-25T06:33:01;97954.44;;;25.45;34.48
67818;BME280;54614;47.576;7.524;2023-04-25T06:35:27;97965.56;;;25.49;34.41
67818;BME280;54614;47.576;7.524;2023-04-25T06:37:53;97958.78;;;25.46;34.47
67818;BME280;54614;47.576;7.524;2023-04-25T06:40:18;97967.44;;;25.48;34.38
67818;BME280;54614;47.576;7.524;2023-04-25T06:42:44;97973.66;;;25.49;34.48
67818;BME280;54614;47.576;7.524;2023-04-25T06:45:10;97978.22;;;25.48;34.47
67818;BME280;54614;47.576;7.524;2023-04-25T06:47:36;97987.94;;;25.49;34.68
67818;BME280;54614;47.576;7.524;2023-04-25T06:50:02;97982.66;;;25.43;34.59
67818;BME280;54614;47.576;7.524;2023-04-25T06:52:28;97986.16;;;25.43;34.64
67818;BME280;54614;47.576;7.524;2023-04-25T06:54:54;97988.16;;;25.48;34.34
67818;BME280;54614;47.576;7.524;2023-04-25T06:57:20;97990.84;;;25.48;34.59
67818;BME280;54614;47.576;7.524;2023-04-25T06:59:45;97994.00;;;25.45;34.52
67818;BME280;54614;47.576;7.524;2023-04-25T07:02:11;98004.78;;;25.45;34.87
67818;BME280;54614;47.576;7.524;2023-04-25T07:04:37;98004.31;;;25.48;34.71
67818;BME280;54614;47.576;7.524;2023-04-25T07:07:03;98006.19;;;25.47;34.65
67818;BME280;54614;47.576;7.524;2023-04-25T07:09:29;98008.28;;;25.45;34.66
67818;BME280;54614;47.576;7.524;2023-04-25T07:11:55;98018.59;;;25.48;34.38
67818;BME280;54614;47.576;7.524;2023-04-25T07:14:22;98019.84;;;25.34;37.19
67818;BME280;54614;47.576;7.524;2023-04-25T07:16:48;98016.72;;;25.07;38.80
67818;BME280;54614;47.576;7.524;2023-04-25T07:19:15;98016.00;;;25.00;38.21
67818;BME280;54614;47.576;7.524;2023-04-25T07:21:41;98021.84;;;24.97;37.75
67818;BME280;54614;47.576;7.524;2023-04-25T07:24:06;98025.34;;;24.97;37.57
67818;BME280;54614;47.576;7.524;2023-04-25T07:26:32;98026.38;;;24.96;37.39
67818;BME280;54614;47.576;7.524;2023-04-25T07:28:58;98026.56;;;25.13;37.08
67818;BME280;54614;47.576;7.524;2023-04-25T07:31:25;98032.38;;;24.98;37.73
67818;BME280;54614;47.576;7.524;2023-04-25T07:33:50;98032.97;;;25.00;37.55
67818;BME280;54614;47.576;7.524;2023-04-25T07:36:16;98033.78;;;25.01;37.58
67818;BME280;54614;47.576;7.524;2023-04-25T07:38:42;98033.25;;;25.11;37.41
67818;BME280;54614;47.576;7.524;2023-04-25T07:41:08;98035.56;;;25.37;36.01
67818;BME280;54614;47.576;7.524;2023-04-25T07:43:34;98039.59;;;25.58;35.52
67818;BME280;54614;47.576;7.524;2023-04-25T07:45:59;98047.72;;;25.69;35.02
67818;BME280;54614;47.576;7.524;2023-04-25T07:48:25;98048.53;;;25.70;35.12
67818;BME280;54614;47.576;7.524;2023-04-25T07:50:51;98053.56;;;25.66;35.09
67818;BME280;54614;47.576;7.524;2023-04-25T07:53:17;98058.03;;;25.73;35.17
67818;BME280;54614;47.576;7.524;2023-04-25T07:55:44;98064.22;;;25.73;35.21
67818;BME280;54614;47.576;7.524;2023-04-25T07:58:11;98057.91;;;25.67;35.61
67818;BME280;54614;47.576;7.524;2023-04-25T08:00:37;98062.69;;;25.65;35.57
67818;BME280;54614;47.576;7.524;2023-04-25T08:03:03;98066.56;;;25.69;35.60
67818;BME280;54614;47.576;7.524;2023-04-25T08:05:29;98070.16;;;25.22;40.34
67818;BME280;54614;47.576;7.524;2023-04-25T08:07:55;98080.41;;;25.13;40.76
67818;BME280;54614;47.576;7.524;2023-04-25T08:10:22;98083.84;;;25.02;40.89
67818;BME280;54614;47.576;7.524;2023-04-25T08:12:49;98088.66;;;25.00;41.12
67818;BME280;54614;47.576;7.524;2023-04-25T08:15:15;98086.91;;;25.05;40.76
67818;BME280;54614;47.576;7.524;2023-04-25T08:17:41;98096.94;;;24.98;43.07
67818;BME280;54614;47.576;7.524;2023-04-25T08:20:07;98098.81;;;24.98;43.03
67818;BME280;54614;47.576;7.524;2023-04-25T08:22:34;98109.19;;;25.13;42.25
67818;BME280;54614;47.576;7.524;2023-04-25T08:25:00;98106.50;;;25.13;41.43
67818;BME280;54614;47.576;7.524;2023-04-25T08:27:26;98114.47;;;25.19;41.03
67818;BME280;54614;47.576;7.524;2023-04-25T08:29:51;98121.28;;;25.22;40.41
67818;BME280;54614;47.576;7.524;2023-04-25T08:32:19;98115.94;;;25.33;39.89
67818;BME280;54614;47.576;7.524;2023-04-25T08:34:45;98125.41;;;25.54;38.99
67818;BME280;54614;47.576;7.524;2023-04-25T08:37:11;98133.78;;;25.46;38.94
67818;BME280;54614;47.576;7.524;2023-04-25T08:39:37;98132.19;;;25.27;40.44
67818;BME280;54614;47.576;7.524;2023-04-25T08:42:06;98136.03;;;25.49;39.74
67818;BME280;54614;47.576;7.524;2023-04-25T08:44:36;98136.16;;;25.54;38.02
67818;BME280;54614;47.576;7.524;2023-04-25T08:47:06;98133.03;;;25.57;37.15
67818;BME280;54614;47.576;7.524;2023-04-25T08:49:33;98141.69;;;25.59;37.15
67818;BME280;54614;47.576;7.524;2023-04-25T08:52:01;98140.63;;;25.60;37.16
67818;BME280;54614;47.576;7.524;2023-04-25T08:54:28;98148.72;;;25.60;36.79
67818;BME280;54614;47.576;7.524;2023-04-25T08:57:00;98147.53;;;25.56;36.63
67818;BME280;54614;47.576;7.524;2023-04-25T08:59:32;98146.03;;;25.60;36.55
67818;BME280;54614;47.576;7.524;2023-04-25T09:01:58;98152.41;;;25.66;36.32
67818;BME280;54614;47.576;7.524;2023-04-25T09:04:24;98154.22;;;25.84;36.64
67818;BME280;54614;47.576;7.524;2023-04-25T09:06:50;98161.31;;;25.66;37.55
67818;BME280;54614;47.576;7.524;2023-04-25T09:09:16;98162.34;;;25.65;37.41
67818;BME280;54614;47.576;7.524;2023-04-25T09:11:42;98164.28;;;25.58;37.34
67818;BME280;54614;47.576;7.524;2023-04-25T09:14:15;98158.16;;;25.51;37.24
67818;BME280;54614;47.576;7.524;2023-04-25T09:19:25;98155.56;;;25.45;37.43
67818;BME280;54614;47.576;7.524;2023-04-25T09:21:53;98154.75;;;25.44;36.86
67818;BME280;54614;47.576;7.524;2023-04-25T09:24:42;98164.00;;;25.48;37.20
67818;BME280;54614;47.576;7.524;2023-04-25T09:27:11;98166.09;;;25.46;36.87
67818;BME280;54614;47.576;7.524;2023-04-25T09:29:40;98169.63;;;25.47;36.99
67818;BME280;54614;47.576;7.524;2023-04-25T09:32:20;98170.22;;;25.49;36.67
67818;BME280;54614;47.576;7.524;2023-04-25T09:34:50;98171.41;;;25.53;36.76
67818;BME280;54614;47.576;7.524;2023-04-25T09:37:28;98171.19;;;25.54;36.42
67818;BME280;54614;47.576;7.524;2023-04-25T09:39:57;98173.06;;;25.54;36.81
67818;BME280;54614;47.576;7.524;2023-04-25T09:42:31;98187.03;;;25.62;36.65
67818;BME280;54614;47.576;7.524;2023-04-25T09:44:58;98187.84;;;25.63;36.48
67818;BME280;54614;47.576;7.524;2023-04-25T09:47:26;98197.78;;;25.62;36.47
67818;BME280;54614;47.576;7.524;2023-04-25T09:49:53;98199.00;;;25.66;35.97
67818;BME280;54614;47.576;7.524;2023-04-25T09:52:25;98198.00;;;25.79;35.81
67818;BME280;54614;47.576;7.524;2023-04-25T09:54:52;98193.81;;;25.83;35.70
67818;BME280;54614;47.576;7.524;2023-04-25T09:57:22;98196.59;;;25.77;35.70
67818;BME280;54614;47.576;7.524;2023-04-25T09:59:54;98200.47;;;25.81;35.76
67818;BME280;54614;47.576;7.524;2023-04-25T10:02:26;98202.22;;;25.75;35.79
67818;BME280;54614;47.576;7.524;2023-04-25T10:04:54;98192.63;;;25.79;35.73
67818;BME280;54614;47.576;7.524;2023-04-25T10:07:24;98195.69;;;25.83;35.47
67818;BME280;54614;47.576;7.524;2023-04-25T10:10:00;98189.25;;;25.84;35.28
67818;BME280;54614;47.576;7.524;2023-04-25T10:12:28;98193.56;;;25.85;35.29
67818;BME280;54614;47.576;7.524;2023-04-25T10:14:55;98200.84;;;25.84;35.27
67818;BME280;54614;47.576;7.524;2023-04-25T10:17:22;98192.75;;;25.84;35.36
67818;BME280;54614;47.576;7.524;2023-04-25T10:19:48;98193.22;;;25.81;35.41
67818;BME280;54614;47.576;7.524;2023-04-25T10:22:34;98199.34;;;25.88;35.22
67818;BME280;54614;47.576;7.524;2023-04-25T10:25:01;98198.75;;;25.86;35.50
67818;BME280;54614;47.576;7.524;2023-04-25T10:27:31;98197.19;;;25.79;35.53
67818;BME280;54614;47.576;7.524;2023-04-25T10:30:09;98187.00;;;25.81;35.24
67818;BME280;54614;47.576;7.524;2023-04-25T10:32:36;98185.34;;;25.80;35.36
67818;BME280;54614;47.576;7.524;2023-04-25T10:35:19;98183.50;;;25.80;35.50
67818;BME280;54614;47.576;7.524;2023-04-25T10:38:09;98180.34;;;25.83;35.08
67818;BME280;54614;47.576;7.524;2023-04-25T10:40:36;98179.38;;;25.78;35.40
67818;BME280;54614;47.576;7.524;2023-04-25T10:46:02;98184.31;;;25.81;35.16
67818;BME280;54614;47.576;7.524;2023-04-25T10:48:31;98181.38;;;25.82;35.26
67818;BME280;54614;47.576;7.524;2023-04-25T10:51:10;98173.53;;;25.81;35.16
67818;BME280;54614;47.576;7.524;2023-04-25T10:53:37;98185.00;;;25.76;35.57
67818;BME280;54614;47.576;7.524;2023-04-25T10:56:22;98177.03;;;25.81;35.43
67818;BME280;54614;47.576;7.524;2023-04-25T10:58:49;98186.41;;;25.79;35.21
67818;BME280;54614;47.576;7.524;2023-04-25T11:01:25;98182.22;;;25.83;35.18
67818;BME280;54614;47.576;7.524;2023-04-25T11:03:58;98184.66;;;25.84;35.11
67818;BME280;54614;47.576;7.524;2023-04-25T11:09:18;98197.69;;;25.87;35.04
67818;BME280;54614;47.576;7.524;2023-04-25T11:11:57;98185.63;;;25.90;34.87
67818;BME280;54614;47.576;7.524;2023-04-25T11:14:24;98184.34;;;25.92;34.86
67818;BME280;54614;47.576;7.524;2023-04-25T11:16:58;98186.44;;;25.90;34.84
67818;BME280;54614;47.576;7.524;2023-04-25T11:19:29;98176.34;;;25.86;34.72
67818;BME280;54614;47.576;7.524;2023-04-25T11:22:00;98180.25;;;25.90;34.73
67818;BME280;54614;47.576;7.524;2023-04-25T11:24:32;98180.00;;;25.91;34.52
67818;BME280;54614;47.576;7.524;2023-04-25T11:27:00;98182.94;;;25.90;34.68
67818;BME280;54614;47.576;7.524;2023-04-25T11:29:29;98187.28;;;25.91;34.56
67818;BME280;54614;47.576;7.524;2023-04-25T11:31:56;98182.47;;;25.93;34.41
67818;BME280;54614;47.576;7.524;2023-04-25T11:34:24;98174.38;;;25.93;34.56
67818;BME280;54614;47.576;7.524;2023-04-25T11:36:53;98184.94;;;25.94;34.61
67818;BME280;54614;47.576;7.524;2023-04-25T11:39:20;98184.72;;;25.96;34.70
67818;BME280;54614;47.576;7.524;2023-04-25T11:41:47;98186.00;;;25.93;34.59
67818;BME280;54614;47.576;7.524;2023-04-25T11:44:16;98185.41;;;25.91;34.74
67818;BME280;54614;47.576;7.524;2023-04-25T11:46:46;98189.50;;;25.94;34.84
67818;BME280;54614;47.576;7.524;2023-04-25T11:49:13;98196.31;;;25.96;34.83
67818;BME280;54614;47.576;7.524;2023-04-25T11:51:46;98186.56;;;25.95;34.71
67818;BME280;54614;47.576;7.524;2023-04-25T11:54:14;98188.09;;;25.91;34.94
67818;BME280;54614;47.576;7.524;2023-04-25T11:56:44;98192.78;;;25.96;34.87
67818;BME280;54614;47.576;7.524;2023-04-25T11:59:11;98183.97;;;25.89;34.68
67818;BME280;54614;47.576;7.524;2023-04-25T12:01:48;98193.13;;;25.88;34.62
67818;BME280;54614;47.576;7.524;2023-04-25T12:04:19;98191.25;;;25.88;34.86
67818;BME280;54614;47.576;7.524;2023-04-25T12:06:48;98196.41;;;25.90;34.45
67818;BME280;54614;47.576;7.524;2023-04-25T12:09:17;98213.03;;;25.87;34.79
67818;BME280;54614;47.576;7.524;2023-04-25T12:11:55;98226.63;;;25.92;34.68
67818;BME280;54614;47.576;7.524;2023-04-25T12:14:25;98237.41;;;25.92;34.63
67818;BME280;54614;47.576;7.524;2023-04-25T12:16:55;98229.78;;;25.89;34.88
67818;BME280;54614;47.576;7.524;2023-04-25T12:19:21;98229.34;;;25.92;34.80
67818;BME280;54614;47.576;7.524;2023-04-25T12:21:48;98236.38;;;25.93;35.10
67818;BME280;54614;47.576;7.524;2023-04-25T12:24:18;98239.88;;;25.93;34.91
67818;BME280;54614;47.576;7.524;2023-04-25T12:27:00;98219.75;;;25.96;34.92
67818;BME280;54614;47.576;7.524;2023-04-25T12:29:29;98214.81;;;25.93;34.93
67818;BME280;54614;47.576;7.524;2023-04-25T12:31:56;98221.84;;;25.94;34.74
67818;BME280;54614;47.576;7.524;2023-04-25T12:34:23;98218.09;;;25.95;34.62
67818;BME280;54614;47.576;7.524;2023-04-25T12:36:51;98220.19;;;25.93;34.77
67818;BME280;54614;47.576;7.524;2023-04-25T12:39:24;98222.88;;;25.93;34.94
67818;BME280;54614;47.576;7.524;2023-04-25T12:41:51;98230.53;;;25.96;34.79
67818;BME280;54614;47.576;7.524;2023-04-25T12:44:20;98232.16;;;25.97;34.90
67818;BME280;54614;47.576;7.524;2023-04-25T12:46:47;98223.50;;;25.95;35.07
67818;BME280;54614;47.576;7.524;2023-04-25T12:49:14;98228.28;;;25.93;34.96
67818;BME280;54614;47.576;7.524;2023-04-25T12:51:40;98232.03;;;25.92;35.00
67818;BME280;54614;47.576;7.524;2023-04-25T12:54:08;98233.06;;;25.91;35.26
67818;BME280;54614;47.576;7.524;2023-04-25T12:56:34;98236.59;;;25.91;34.94
67818;BME280;54614;47.576;7.524;2023-04-25T12:59:00;98238.69;;;25.89;34.88
67818;BME280;54614;47.576;7.524;2023-04-25T13:01:29;98241.97;;;25.91;34.52
67818;BME280;54614;47.576;7.524;2023-04-25T13:03:55;98247.16;;;25.93;34.73
67818;BME280;54614;47.576;7.524;2023-04-25T13:06:22;98247.16;;;25.93;34.99
67818;BME280;54614;47.576;7.524;2023-04-25T13:08:48;98238.84;;;25.94;35.07
67818;BME280;54614;47.576;7.524;2023-04-25T13:11:14;98249.63;;;25.94;34.88